createdAt,value
2023-04-17T00:02:11.151Z,0.77
2023-04-17T00:04:41.131Z,1.23
2023-04-17T00:07:09.477Z,1.20
2023-04-17T00:09:36.906Z,0.93
2023-04-17T00:12:04.743Z,1.30
2023-04-17T00:14:32.184Z,1.35
2023-04-17T00:16:59.543Z,1.27
2023-04-17T00:19:27.241Z,1.65
2023-04-17T00:21:54.634Z,1.30
2023-04-17T00:24:22.047Z,1.33
2023-04-17T00:26:49.791Z,0.95
2023-04-17T00:29:17.267Z,0.85
2023-04-17T00:31:44.720Z,1.30
2023-04-17T00:34:12.400Z,0.90
2023-04-17T00:36:39.961Z,1.00
2023-04-17T00:39:07.379Z,1.10
2023-04-17T00:41:35.047Z,1.27
2023-04-17T00:44:02.439Z,1.17
2023-04-17T00:46:30.717Z,1.20
2023-04-17T00:48:58.435Z,0.90
2023-04-17T00:51:25.866Z,1.08
2023-04-17T00:53:53.839Z,1.12
2023-04-17T00:56:21.717Z,1.62
2023-04-17T00:58:49.163Z,1.20
2023-04-17T01:01:17.956Z,1.40
2023-04-17T01:03:46.262Z,1.20
2023-04-17T01:06:13.937Z,1.92
2023-04-17T01:08:43.856Z,1.35
2023-04-17T01:11:13.025Z,1.92
2023-04-17T01:13:52.464Z,1.37
2023-04-17T01:16:20.830Z,1.12
2023-04-17T01:18:48.426Z,0.80
2023-04-17T01:21:16.655Z,0.68
2023-04-17T01:23:52.101Z,1.92
2023-04-17T01:26:23.864Z,0.70
2023-04-17T01:28:54.031Z,1.20
2023-04-17T01:31:22.507Z,1.17
2023-04-17T01:33:50.700Z,1.48
2023-04-17T01:36:18.995Z,1.33
2023-04-17T01:38:46.468Z,1.55
2023-04-17T01:41:13.911Z,1.27
2023-04-17T01:43:46.984Z,1.50
2023-04-17T01:46:14.421Z,1.75
2023-04-17T01:48:42.177Z,2.05
2023-04-17T01:51:09.621Z,1.37
2023-04-17T01:53:39.005Z,1.33
2023-04-17T01:56:07.128Z,1.40
2023-04-17T01:58:35.511Z,1.55
2023-04-17T02:01:03.005Z,1.60
2023-04-17T02:03:31.504Z,1.60
2023-04-17T02:05:59.109Z,1.33
2023-04-17T02:08:27.162Z,1.58
2023-04-17T02:10:54.897Z,1.90
2023-04-17T02:13:22.325Z,1.90
2023-04-17T02:15:49.764Z,1.60
2023-04-17T02:18:17.581Z,1.27
2023-04-17T02:20:45.287Z,1.23
2023-04-17T02:23:12.834Z,1.12
2023-04-17T02:25:40.268Z,2.03
2023-04-17T02:28:07.939Z,1.60
2023-04-17T02:30:35.428Z,1.75
2023-04-17T02:33:02.867Z,1.37
2023-04-17T02:35:31.772Z,1.00
2023-04-17T02:37:59.590Z,1.05
2023-04-17T02:40:27.396Z,0.88
2023-04-17T02:42:55.502Z,1.37
2023-04-17T02:45:22.874Z,1.90
2023-04-17T02:47:50.564Z,1.67
2023-04-17T02:50:18.446Z,1.65
2023-04-17T02:52:47.086Z,1.67
2023-04-17T02:55:14.498Z,1.25
2023-04-17T02:57:42.176Z,1.58
2023-04-17T03:00:14.138Z,1.75
2023-04-17T03:02:42.208Z,1.77
2023-04-17T03:05:11.571Z,1.23
2023-04-17T03:07:38.987Z,1.58
2023-04-17T03:10:08.560Z,1.23
2023-04-17T03:12:36.161Z,1.75
2023-04-17T03:15:03.747Z,2.35
2023-04-17T03:17:31.454Z,1.50
2023-04-17T03:19:59.749Z,1.17
2023-04-17T03:22:27.193Z,1.05
2023-04-17T03:24:54.942Z,2.12
2023-04-17T03:27:24.749Z,0.73
2023-04-17T03:29:54.592Z,0.95
2023-04-17T03:32:22.632Z,1.10
2023-04-17T03:34:50.197Z,1.12
2023-04-17T03:37:17.658Z,1.10
2023-04-17T03:39:45.452Z,0.82
2023-04-17T03:42:14.709Z,1.02
2023-04-17T03:44:42.310Z,1.77
2023-04-17T03:47:11.675Z,0.85
2023-04-17T03:49:40.957Z,1.55
2023-04-17T03:52:08.335Z,0.80
2023-04-17T03:54:36.018Z,1.25
2023-04-17T03:57:04.068Z,1.33
2023-04-17T03:59:31.854Z,1.67
2023-04-17T04:01:59.819Z,0.95
2023-04-17T04:04:28.194Z,1.15
2023-04-17T04:06:58.042Z,1.37
2023-04-17T04:09:26.179Z,0.88
2023-04-17T04:11:53.962Z,0.73
2023-04-17T04:14:21.446Z,1.35
2023-04-17T04:16:49.244Z,1.27
2023-04-17T04:19:17.213Z,2.00
2023-04-17T04:21:45.142Z,1.23
2023-04-17T04:24:14.356Z,1.30
2023-04-17T04:26:43.141Z,1.48
2023-04-17T04:29:11.850Z,0.85
2023-04-17T04:31:40.691Z,1.80
2023-04-17T04:34:09.729Z,1.33
2023-04-17T04:36:41.959Z,0.90
2023-04-17T04:39:10.268Z,0.75
2023-04-17T04:41:38.372Z,0.93
2023-04-17T04:44:06.029Z,1.12
2023-04-17T04:46:34.915Z,1.50
2023-04-17T04:49:03.118Z,1.52
2023-04-17T04:51:32.101Z,1.90
2023-04-17T04:53:59.846Z,1.30
2023-04-17T04:56:30.431Z,1.48
2023-04-17T04:58:59.118Z,1.42
2023-04-17T05:01:28.009Z,1.83
2023-04-17T05:03:56.108Z,1.77
2023-04-17T05:06:25.134Z,1.12
2023-04-17T05:08:53.587Z,1.48
2023-04-17T05:11:21.311Z,1.48
2023-04-17T05:13:48.848Z,1.52
2023-04-17T05:16:17.576Z,1.40
2023-04-17T05:18:48.020Z,1.48
2023-04-17T05:21:15.975Z,1.45
2023-04-17T05:23:44.155Z,1.65
2023-04-17T05:26:11.800Z,1.30
2023-04-17T05:28:40.994Z,1.65
2023-04-17T05:31:08.938Z,1.40
2023-04-17T05:33:36.769Z,1.45
2023-04-17T05:36:06.144Z,1.42
2023-04-17T05:38:34.557Z,1.52
2023-04-17T05:41:08.379Z,1.15
2023-04-17T05:43:37.669Z,1.62
2023-04-17T05:46:06.010Z,1.87
2023-04-17T05:48:34.217Z,1.98
2023-04-17T05:51:03.190Z,2.10
2023-04-17T05:53:33.259Z,1.90
2023-04-17T05:56:01.803Z,2.12
2023-04-17T05:58:30.522Z,0.95
2023-04-17T06:00:58.488Z,1.50
2023-04-17T06:03:27.168Z,1.23
2023-04-17T06:05:57.244Z,1.75
2023-04-17T06:08:26.140Z,1.37
2023-04-17T06:10:56.014Z,1.85
2023-04-17T06:13:24.483Z,1.55
2023-04-17T06:15:52.397Z,1.65
2023-04-17T06:18:20.113Z,1.52
2023-04-17T06:20:47.737Z,1.50
2023-04-17T06:23:15.578Z,2.42
2023-04-17T06:25:43.281Z,1.52
2023-04-17T06:28:10.740Z,1.65
2023-04-17T06:30:38.370Z,0.98
2023-04-17T06:33:07.287Z,1.83
2023-04-17T06:35:35.372Z,2.15
2023-04-17T06:38:03.458Z,2.37
2023-04-17T06:40:31.579Z,1.85
2023-04-17T06:42:59.039Z,2.35
2023-04-17T06:45:28.180Z,2.00
2023-04-17T06:47:56.809Z,1.70
2023-04-17T06:50:24.374Z,2.37
2023-04-17T06:52:51.877Z,1.55
2023-04-17T06:55:19.523Z,1.85
2023-04-17T06:57:46.881Z,1.10
2023-04-17T07:00:14.855Z,1.17
2023-04-17T07:02:42.629Z,1.08
2023-04-17T07:05:10.430Z,0.93
2023-04-17T07:07:37.904Z,1.48
2023-04-17T07:10:06.855Z,1.60
2023-04-17T07:12:34.261Z,1.58
2023-04-17T07:15:01.822Z,0.68
2023-04-17T07:17:29.643Z,1.12
2023-04-17T07:19:57.119Z,1.20
2023-04-17T07:22:26.605Z,1.30
2023-04-17T07:24:55.224Z,1.55
2023-04-17T07:27:22.655Z,1.12
2023-04-17T07:29:54.630Z,2.17
2023-04-17T07:32:24.382Z,1.12
2023-04-17T07:34:52.086Z,2.10
2023-04-17T07:37:19.682Z,1.35
2023-04-17T07:39:50.886Z,1.00
2023-04-17T07:42:18.363Z,1.62
2023-04-17T07:44:46.384Z,1.52
2023-04-17T07:47:14.319Z,1.45
2023-04-17T07:49:41.877Z,1.45
2023-04-17T07:52:09.292Z,1.52
2023-04-17T07:54:36.943Z,0.85
2023-04-17T07:57:04.473Z,0.82
2023-04-17T07:59:31.861Z,1.08
2023-04-17T08:01:59.746Z,1.33
2023-04-17T08:04:27.619Z,1.20
2023-04-17T08:06:55.347Z,1.30
2023-04-17T08:09:22.778Z,0.73
2023-04-17T08:11:57.599Z,1.02
2023-04-17T08:14:25.677Z,1.35
2023-04-17T08:16:53.485Z,1.67
2023-04-17T08:19:21.004Z,0.98
2023-04-17T08:21:48.850Z,2.08
2023-04-17T08:24:19.797Z,1.40
2023-04-17T08:26:47.898Z,1.85
2023-04-17T08:29:15.873Z,1.27
2023-04-17T08:31:43.432Z,1.05
2023-04-17T08:34:14.956Z,1.42
2023-04-17T08:36:43.417Z,2.03
2023-04-17T08:39:12.426Z,1.37
2023-04-17T08:41:48.053Z,1.45
2023-04-17T08:44:20.214Z,1.60
2023-04-17T08:46:48.518Z,1.70
2023-04-17T08:49:16.789Z,1.02
2023-04-17T08:51:44.266Z,1.58
2023-04-17T08:54:11.757Z,1.80
2023-04-17T08:56:39.422Z,0.98
2023-04-17T08:59:06.848Z,1.52
2023-04-17T09:01:34.978Z,1.75
2023-04-17T09:04:02.891Z,1.62
2023-04-17T09:06:48.780Z,2.25
2023-04-17T09:09:16.568Z,1.58
2023-04-17T09:11:43.990Z,1.98
2023-04-17T09:14:30.412Z,1.30
2023-04-17T09:16:58.157Z,1.25
2023-04-17T09:19:25.965Z,0.90
2023-04-17T09:21:54.766Z,1.35
2023-04-17T09:24:43.010Z,2.08
2023-04-17T09:27:27.071Z,1.40
2023-04-17T09:30:03.599Z,1.45
2023-04-17T09:32:33.543Z,1.12
2023-04-17T09:35:03.594Z,1.42
2023-04-17T09:37:52.036Z,2.25
2023-04-17T09:40:22.906Z,1.70
2023-04-17T09:43:01.262Z,1.75
2023-04-17T09:45:35.615Z,1.52
2023-04-17T09:48:07.803Z,2.40
2023-04-17T09:50:37.304Z,1.85
2023-04-17T09:53:07.379Z,2.20
2023-04-17T09:55:37.020Z,1.15
2023-04-17T09:58:06.399Z,1.05
2023-04-17T10:00:33.970Z,0.65
2023-04-17T10:03:01.893Z,0.75
2023-04-17T10:05:31.605Z,1.08
2023-04-17T10:07:59.141Z,1.35
2023-04-17T10:10:32.408Z,1.50
2023-04-17T10:13:03.102Z,1.37
2023-04-17T10:15:31.286Z,1.58
2023-04-17T10:18:19.987Z,1.70
2023-04-17T10:20:50.208Z,0.98
2023-04-17T10:23:32.874Z,1.08
2023-04-17T10:26:25.363Z,0.95
2023-04-17T10:28:54.325Z,0.82
2023-04-17T10:31:23.656Z,0.80
2023-04-17T10:33:52.761Z,1.23
2023-04-17T10:36:40.782Z,1.05
2023-04-17T10:39:20.588Z,1.02
2023-04-17T10:42:04.945Z,1.52
2023-04-17T10:44:35.974Z,1.35
2023-04-17T10:47:07.596Z,1.12
2023-04-17T10:50:08.658Z,1.23
2023-04-17T10:52:42.162Z,1.02
2023-04-17T10:55:15.986Z,1.65
2023-04-17T10:57:58.753Z,1.10
2023-04-17T11:00:37.337Z,1.87
2023-04-17T11:03:06.227Z,1.37
2023-04-17T11:05:35.929Z,1.30
2023-04-17T11:08:03.599Z,1.25
2023-04-17T11:10:35.704Z,1.62
2023-04-17T11:13:03.107Z,1.77
2023-04-17T11:15:32.289Z,1.27
2023-04-17T11:18:00.692Z,1.73
2023-04-17T11:20:30.190Z,1.90
2023-04-17T11:23:02.445Z,2.08
2023-04-17T11:25:31.751Z,1.90
2023-04-17T11:28:05.763Z,2.50
2023-04-17T11:30:35.609Z,2.12
2023-04-17T11:33:05.217Z,1.23
2023-04-17T11:35:37.443Z,1.65
2023-04-17T11:38:22.190Z,1.52
2023-04-17T11:40:54.950Z,1.73
2023-04-17T11:43:23.639Z,2.72
2023-04-17T11:45:58.413Z,1.98
2023-04-17T11:51:06.456Z,1.77
2023-04-17T11:53:35.394Z,1.75
2023-04-17T11:56:16.094Z,1.80
2023-04-17T11:58:47.588Z,1.85
2023-04-17T12:01:15.467Z,1.55
2023-04-17T12:03:45.457Z,1.40
2023-04-17T12:06:13.612Z,1.52
2023-04-17T12:08:47.919Z,1.50
2023-04-17T12:11:35.947Z,1.30
2023-04-17T12:14:05.545Z,1.33
2023-04-17T12:16:33.367Z,1.15
2023-04-17T12:19:00.980Z,1.40
2023-04-17T12:21:28.460Z,1.77
2023-04-17T12:23:56.167Z,1.27
2023-04-17T12:26:25.284Z,1.15
2023-04-17T12:28:52.750Z,1.10
2023-04-17T12:31:20.481Z,1.12
2023-04-17T12:33:47.946Z,1.33
2023-04-17T12:36:15.492Z,1.08
2023-04-17T12:38:43.148Z,0.85
2023-04-17T12:41:10.769Z,1.17
2023-04-17T12:43:38.281Z,1.70
2023-04-17T12:46:06.100Z,0.98
2023-04-17T12:48:34.104Z,0.90
2023-04-17T12:51:01.661Z,1.23
2023-04-17T12:53:30.056Z,1.10
2023-04-17T12:55:57.646Z,1.42
2023-04-17T12:58:25.473Z,1.80
2023-04-17T13:00:53.133Z,1.85
2023-04-17T13:03:20.900Z,1.55
2023-04-17T13:05:49.014Z,1.52
2023-04-17T13:08:16.652Z,1.62
2023-04-17T13:10:44.177Z,1.87
2023-04-17T13:13:11.623Z,1.35
2023-04-17T13:15:39.401Z,2.10
2023-04-17T13:18:08.162Z,1.48
2023-04-17T13:20:35.890Z,1.50
2023-04-17T13:23:03.588Z,2.00
2023-04-17T13:25:32.167Z,1.48
2023-04-17T13:28:00.209Z,1.60
2023-04-17T13:30:27.959Z,1.77
2023-04-17T13:32:55.519Z,2.30
2023-04-17T13:35:22.965Z,2.53
2023-04-17T13:37:50.605Z,2.33
2023-04-17T13:40:18.029Z,1.90
2023-04-17T13:42:45.381Z,1.40
2023-04-17T13:45:13.408Z,2.10
2023-04-17T13:47:40.888Z,1.85
2023-04-17T13:50:09.101Z,2.20
2023-04-17T13:52:36.786Z,2.25
2023-04-17T13:55:04.481Z,2.12
2023-04-17T13:57:31.935Z,3.00
2023-04-17T13:59:59.622Z,2.05
2023-04-17T14:02:27.157Z,1.95
2023-04-17T14:04:55.387Z,2.20
2023-04-17T14:07:22.930Z,2.53
2023-04-17T14:09:50.287Z,2.60
2023-04-17T14:12:20.874Z,1.80
2023-04-17T14:14:48.309Z,2.60
2023-04-17T14:17:15.959Z,1.95
2023-04-17T14:19:43.662Z,2.42
2023-04-17T14:22:11.312Z,1.70
2023-04-17T14:24:38.712Z,1.80
2023-04-17T14:27:06.403Z,1.95
2023-04-17T14:29:33.798Z,1.75
2023-04-17T14:32:01.279Z,2.33
2023-04-17T14:34:29.572Z,2.85
2023-04-17T14:36:58.160Z,2.70
2023-04-17T14:39:25.776Z,2.30
2023-04-17T14:41:53.595Z,1.52
2023-04-17T14:44:21.121Z,2.28
2023-04-17T14:46:48.833Z,1.50
2023-04-17T14:49:17.018Z,2.35
2023-04-17T14:51:44.384Z,2.03
2023-04-17T14:54:11.810Z,2.05
2023-04-17T14:56:39.913Z,1.17
2023-04-17T14:59:07.329Z,2.15
2023-04-17T15:01:34.915Z,1.77
2023-04-17T15:04:03.758Z,2.58
2023-04-17T15:06:31.296Z,2.05
2023-04-17T15:08:58.672Z,3.92
2023-04-17T15:11:26.479Z,2.20
2023-04-17T15:13:53.852Z,2.90
2023-04-17T15:16:21.297Z,2.40
2023-04-17T15:18:49.613Z,1.70
2023-04-17T15:21:17.387Z,1.70
2023-04-17T15:23:45.087Z,2.58
2023-04-17T15:26:13.051Z,1.37
2023-04-17T15:28:40.586Z,2.17
2023-04-17T15:31:08.048Z,1.90
2023-04-17T15:33:36.321Z,2.33
2023-04-17T15:36:03.805Z,2.95
2023-04-17T15:38:31.180Z,2.53
2023-04-17T15:40:59.163Z,3.35
2023-04-17T15:43:27.036Z,2.60
2023-04-17T15:45:54.758Z,2.33
2023-04-17T15:48:22.479Z,3.50
2023-04-17T15:50:49.912Z,2.70
2023-04-17T15:53:17.324Z,2.65
2023-04-17T15:55:45.015Z,2.62
2023-04-17T15:58:12.375Z,2.65
2023-04-17T16:00:39.896Z,2.55
2023-04-17T16:03:08.065Z,2.62
2023-04-17T16:05:35.718Z,2.10
2023-04-17T16:08:03.107Z,3.35
2023-04-17T16:10:31.005Z,4.10
2023-04-17T16:12:58.393Z,3.67
2023-04-17T16:15:25.903Z,3.83
2023-04-17T16:17:53.620Z,2.53
2023-04-17T16:20:21.032Z,2.47
2023-04-17T16:22:48.463Z,2.10
2023-04-17T16:25:16.463Z,2.45
2023-04-17T16:27:44.077Z,2.33
2023-04-17T16:30:11.694Z,2.62
2023-04-17T16:32:39.482Z,3.00
2023-04-17T16:35:07.526Z,2.55
2023-04-17T16:37:34.928Z,2.47
2023-04-17T16:40:05.161Z,2.60
2023-04-17T16:42:32.766Z,2.65
2023-04-17T16:45:00.377Z,2.95
2023-04-17T16:47:31.377Z,2.75
2023-04-17T16:49:59.018Z,2.22
2023-04-17T16:52:26.442Z,1.98
2023-04-17T16:54:54.175Z,2.83
2023-04-17T16:57:21.720Z,2.92
2023-04-17T16:59:49.320Z,2.92
2023-04-17T17:02:17.013Z,3.75
2023-04-17T17:04:45.817Z,2.40
2023-04-17T17:07:13.503Z,1.92
2023-04-17T17:09:41.223Z,2.47
2023-04-17T17:12:08.611Z,2.65
2023-04-17T17:14:36.208Z,2.53
2023-04-17T17:17:03.908Z,1.73
2023-04-17T17:19:31.352Z,1.77
2023-04-17T17:21:58.763Z,1.70
2023-04-17T17:24:26.757Z,1.65
2023-04-17T17:26:54.247Z,1.65
2023-04-17T17:29:21.761Z,1.67
2023-04-17T17:31:49.557Z,2.50
2023-04-17T17:34:26.056Z,2.25
2023-04-17T17:36:54.990Z,2.55
2023-04-17T17:39:22.545Z,2.25
2023-04-17T17:41:50.018Z,2.62
2023-04-17T17:44:17.736Z,2.15
2023-04-17T17:46:45.295Z,3.08
2023-04-17T17:49:12.954Z,2.50
2023-04-17T17:51:41.850Z,2.92
2023-04-17T17:54:09.592Z,2.28
2023-04-17T17:56:37.177Z,2.58
2023-04-17T17:59:04.913Z,2.60
2023-04-17T18:01:32.685Z,2.80
2023-04-17T18:04:00.611Z,2.45
2023-04-17T18:06:28.564Z,1.95
2023-04-17T18:08:57.917Z,2.05
2023-04-17T18:11:25.842Z,3.08
2023-04-17T18:13:53.260Z,3.62
2023-04-17T18:16:21.037Z,5.45
2023-04-17T18:18:48.791Z,3.20
2023-04-17T18:21:16.177Z,4.18
2023-04-17T18:23:43.638Z,4.05
2023-04-17T18:26:12.947Z,2.70
2023-04-17T18:28:40.692Z,2.25
2023-04-17T18:31:08.220Z,1.92
2023-04-17T18:33:36.288Z,2.20
2023-04-17T18:36:04.670Z,2.12
2023-04-17T18:38:32.270Z,1.87
2023-04-17T18:41:01.290Z,2.33
2023-04-17T18:43:29.133Z,3.00
2023-04-17T18:45:56.791Z,2.05
2023-04-17T18:48:24.679Z,2.33
2023-04-17T18:50:52.221Z,1.52
2023-04-17T18:53:19.773Z,2.47
2023-04-17T18:55:47.467Z,1.90
2023-04-17T18:58:15.026Z,1.55
2023-04-17T19:00:42.395Z,1.73
2023-04-17T19:03:10.371Z,1.23
2023-04-17T19:05:37.986Z,1.48
2023-04-17T19:08:05.516Z,1.58
2023-04-17T19:10:33.700Z,1.98
2023-04-17T19:13:01.482Z,1.35
2023-04-17T19:15:29.105Z,2.33
2023-04-17T19:17:56.959Z,1.25
2023-04-17T19:20:24.578Z,1.40
2023-04-17T19:22:52.088Z,1.90
2023-04-17T19:25:19.926Z,1.73
2023-04-17T19:27:47.308Z,1.75
2023-04-17T19:30:14.810Z,1.98
2023-04-17T19:32:42.867Z,2.17
2023-04-17T19:35:10.632Z,1.65
2023-04-17T19:37:38.155Z,1.12
2023-04-17T19:40:14.160Z,2.28
2023-04-17T19:42:49.521Z,1.98
2023-04-17T19:45:17.488Z,1.27
2023-04-17T19:47:45.214Z,1.55
2023-04-17T19:50:12.832Z,1.70
2023-04-17T19:52:43.085Z,1.17
2023-04-17T19:55:10.654Z,1.55
2023-04-17T19:57:39.202Z,1.25
2023-04-17T20:00:07.647Z,1.27
2023-04-17T20:02:40.565Z,0.82
2023-04-17T20:05:09.071Z,1.02
2023-04-17T20:07:37.170Z,1.08
2023-04-17T20:10:05.395Z,0.85
2023-04-17T20:12:33.245Z,1.00
2023-04-17T20:15:00.864Z,1.20
2023-04-17T20:17:28.418Z,1.05
2023-04-17T20:19:56.142Z,0.82
2023-04-17T20:22:23.702Z,0.85
2023-04-17T20:24:51.311Z,0.85
2023-04-17T20:27:19.213Z,1.33
2023-04-17T20:29:46.772Z,0.93
2023-04-17T20:32:14.174Z,1.70
2023-04-17T20:34:41.818Z,0.90
2023-04-17T20:37:09.582Z,0.90
2023-04-17T20:39:37.012Z,0.80
2023-04-17T20:42:04.917Z,1.05
2023-04-17T20:44:32.898Z,0.95
2023-04-17T20:47:00.265Z,1.30
2023-04-17T20:49:28.303Z,1.00
2023-04-17T20:51:55.818Z,0.80
2023-04-17T20:54:23.405Z,1.55
2023-04-17T20:56:51.193Z,1.33
2023-04-17T20:59:18.671Z,1.42
2023-04-17T21:01:46.201Z,2.10
2023-04-17T21:04:14.183Z,1.30
2023-04-17T21:06:41.931Z,0.75
2023-04-17T21:09:09.716Z,1.42
2023-04-17T21:11:37.445Z,1.67
2023-04-17T21:14:04.888Z,1.42
2023-04-17T21:16:32.340Z,1.00
2023-04-17T21:19:00.167Z,1.75
2023-04-17T21:21:27.567Z,1.80
2023-04-17T21:23:54.941Z,1.70
2023-04-17T21:26:22.668Z,2.45
2023-04-17T21:28:50.046Z,1.52
2023-04-17T21:31:17.493Z,1.00
2023-04-17T21:33:45.452Z,1.60
2023-04-17T21:36:13.992Z,1.45
2023-04-17T21:38:41.466Z,1.17
2023-04-17T21:41:09.306Z,0.95
2023-04-17T21:43:36.661Z,1.62
2023-04-17T21:46:04.313Z,1.30
2023-04-17T21:48:31.988Z,1.37
2023-04-17T21:51:04.029Z,0.65
2023-04-17T21:53:36.312Z,1.55
2023-04-17T21:56:06.279Z,1.40
2023-04-17T21:58:34.779Z,0.90
2023-04-17T22:01:03.178Z,0.80
2023-04-17T22:03:30.902Z,1.17
2023-04-17T22:05:58.292Z,1.27
2023-04-17T22:08:25.681Z,1.23
2023-04-17T22:10:53.327Z,1.85
2023-04-17T22:13:20.737Z,1.35
2023-04-17T22:15:49.253Z,0.90
2023-04-17T22:18:17.060Z,1.83
2023-04-17T22:20:44.598Z,1.60
2023-04-17T22:23:11.987Z,0.85
2023-04-17T22:25:39.653Z,1.02
2023-04-17T22:28:07.405Z,0.88
2023-04-17T22:30:34.832Z,1.15
2023-04-17T22:33:03.238Z,1.12
2023-04-17T22:35:30.770Z,1.23
2023-04-17T22:37:58.307Z,0.95
2023-04-17T22:40:26.050Z,1.12
2023-04-17T22:42:53.458Z,0.95
2023-04-17T22:45:20.861Z,1.48
2023-04-17T22:47:48.541Z,1.80
2023-04-17T22:50:17.595Z,1.00
2023-04-17T22:52:45.023Z,0.85
2023-04-17T22:55:12.766Z,1.45
2023-04-17T22:57:40.685Z,1.02
2023-04-17T23:00:09.833Z,1.12
2023-04-17T23:02:37.843Z,1.35
2023-04-17T23:05:06.445Z,1.25
2023-04-17T23:07:33.909Z,1.10
2023-04-17T23:10:01.611Z,1.48
2023-04-17T23:12:29.032Z,2.62
2023-04-17T23:14:57.814Z,0.93
2023-04-17T23:17:25.493Z,0.93
2023-04-17T23:19:53.333Z,1.15
2023-04-17T23:22:20.839Z,1.95
2023-04-17T23:24:48.736Z,1.45
2023-04-17T23:27:16.127Z,1.20
2023-04-17T23:29:43.548Z,1.35
2023-04-17T23:32:11.215Z,1.05
2023-04-17T23:34:38.676Z,1.20
2023-04-17T23:37:06.194Z,1.58
2023-04-17T23:39:34.866Z,0.80
2023-04-17T23:42:07.236Z,1.23
2023-04-17T23:44:35.647Z,0.98
2023-04-17T23:47:03.641Z,1.95
2023-04-17T23:49:31.173Z,0.82
2023-04-17T23:51:58.819Z,0.93
2023-04-17T23:54:26.268Z,0.85
2023-04-17T23:56:53.888Z,0.75
2023-04-17T23:59:21.596Z,1.12
